Time;durP1;ratioP1;P1;durP2;ratioP2;P2;SDS_P1;SDS_P2;PMS_P1;PMS_P2;Temp;Humidity;BMP_temperature;BMP_pressure;BME280_temperature;BME280_humidity;BME280_pressure;Samples;Min_cycle;Max_cycle;Signal;HPM_P1;HPM_P2
2023/10/31 00:00:11;;;;;;;0.47;0.30;;;;;;;10.70;100.00;99825.38;4976066;28;96860;-28
2023/10/31 00:02:37;;;;;;;0.90;0.52;;;;;;;10.66;100.00;99815.75;4976226;28;96807;-27
2023/10/31 00:05:03;;;;;;;0.75;0.40;;;;;;;10.68;100.00;99815.59;4975803;28;97482;-28
2023/10/31 00:07:29;;;;;;;1.33;0.43;;;;;;;10.71;100.00;99820.81;4974506;28;100688;-27
2023/10/31 00:09:55;;;;;;;0.82;0.20;;;;;;;10.66;100.00;99804.06;4975917;28;96624;-28
2023/10/31 00:12:20;;;;;;;0.28;0.13;;;;;;;10.68;100.00;99810.19;4974882;28;97508;-28
2023/10/31 00:14:45;;;;;;;0.73;0.35;;;;;;;10.64;100.00;99806.88;4975572;28;99271;-28
2023/10/31 00:17:11;;;;;;;0.10;0.10;;;;;;;10.64;100.00;99815.00;4975303;28;105396;-27
2023/10/31 00:19:36;;;;;;;0.30;0.15;;;;;;;10.63;100.00;99807.88;4975223;28;96640;-27
2023/10/31 00:22:01;;;;;;;0.38;0.30;;;;;;;10.63;100.00;99813.28;4975630;28;96928;-27
2023/10/31 00:24:27;;;;;;;1.10;0.40;;;;;;;10.60;100.00;99810.78;4975776;28;97382;-27
2023/10/31 00:26:52;;;;;;;0.73;0.35;;;;;;;10.61;100.00;99809.84;4975460;28;97828;-28
2023/10/31 00:29:17;;;;;;;1.05;0.40;;;;;;;10.65;100.00;99816.72;4975550;28;96638;-28
2023/10/31 00:31:43;;;;;;;0.68;0.50;;;;;;;10.61;100.00;99809.84;4975673;28;96897;-27
2023/10/31 00:34:08;;;;;;;1.00;0.55;;;;;;;10.63;100.00;99807.88;4975144;28;97396;-27
2023/10/31 00:36:34;;;;;;;0.93;0.52;;;;;;;10.64;100.00;99812.28;4975778;28;97779;-29
2023/10/31 00:38:59;;;;;;;0.35;0.32;;;;;;;10.63;100.00;99816.00;4975770;28;96635;-28
2023/10/31 00:41:25;;;;;;;1.77;0.52;;;;;;;10.60;100.00;99827.91;4975594;28;96887;-28
2023/10/31 00:43:50;;;;;;;1.25;0.38;;;;;;;10.62;100.00;99823.22;4974988;28;97825;-27
2023/10/31 00:46:15;;;;;;;1.10;0.80;;;;;;;10.59;100.00;99823.47;4975045;28;97358;-27
2023/10/31 00:48:41;;;;;;;0.43;0.32;;;;;;;10.62;100.00;99827.78;4975253;28;96846;-27
2023/10/31 00:51:06;;;;;;;1.58;0.75;;;;;;;10.61;100.00;99834.22;4975611;28;96844;-27
2023/10/31 00:53:32;;;;;;;0.98;0.57;;;;;;;10.58;100.00;99834.41;4975479;28;97697;-27
2023/10/31 00:55:57;;;;;;;1.40;0.60;;;;;;;10.61;100.00;99839.63;4974956;28;97070;-27
2023/10/31 00:58:22;;;;;;;0.88;0.47;;;;;;;10.59;100.00;99837.03;4975005;28;96751;-27
2023/10/31 01:00:48;;;;;;;0.98;0.63;;;;;;;10.56;100.00;99837.28;4976054;28;96843;-28
2023/10/31 01:03:13;;;;;;;3.08;0.77;;;;;;;10.59;100.00;99853.28;4974878;28;99095;-27
2023/10/31 01:05:38;;;;;;;0.82;0.63;;;;;;;10.61;100.00;99854.03;4975083;28;97417;-27
2023/10/31 01:08:04;;;;;;;4.63;0.80;;;;;;;10.62;100.00;99855.72;4974576;28;96607;-27
2023/10/31 01:10:29;;;;;;;1.83;0.47;;;;;;;10.61;100.00;99855.88;4975188;28;96824;-27
2023/10/31 01:12:54;;;;;;;1.63;0.55;;;;;;;10.62;100.00;99863.84;4975103;28;98139;-27
2023/10/31 01:15:20;;;;;;;1.40;0.80;;;;;;;10.59;100.00;99864.09;4974943;28;98000;-28
2023/10/31 01:17:45;;;;;;;1.80;0.85;;;;;;;10.58;100.00;99861.50;4974803;28;96581;-28
2023/10/31 01:20:11;;;;;;;1.42;0.90;;;;;;;10.59;100.00;99869.53;4975263;28;96768;-27
2023/10/31 01:22:37;;;;;;;1.15;0.80;;;;;;;10.56;100.00;99860.78;4973361;28;101251;-28
2023/10/31 01:25:02;;;;;;;1.35;0.65;;;;;;;10.64;100.00;99882.72;4973331;28;100864;-28
2023/10/31 01:27:28;;;;;;;1.25;0.55;;;;;;;10.61;100.00;99878.38;4975140;28;96555;-27
2023/10/31 01:29:53;;;;;;;2.65;0.90;;;;;;;10.62;100.00;99881.97;4975088;28;96809;-27
2023/10/31 01:32:18;;;;;;;2.95;0.70;;;;;;;10.65;100.00;99879.00;4974362;28;97921;-28
2023/10/31 01:34:44;;;;;;;1.25;0.80;;;;;;;10.65;100.00;99883.56;4974739;28;98012;-27
2023/10/31 01:37:09;;;;;;;3.38;0.82;;;;;;;10.71;100.00;99889.38;4974646;28;96534;-27
2023/10/31 01:39:36;;;;;;;1.35;0.63;;;;;;;10.71;100.00;99883.97;4974698;28;96808;-27
2023/10/31 01:42:01;;;;;;;3.83;0.80;;;;;;;10.70;100.00;99884.06;4973084;28;100886;-28
2023/10/31 01:44:27;;;;;;;1.13;0.88;;;;;;;10.71;100.00;99893.94;4974893;28;97413;-27
2023/10/31 01:46:52;;;;;;;2.35;1.13;;;;;;;10.75;100.00;99903.53;4975704;28;96603;-28
2023/10/31 01:49:17;;;;;;;1.77;0.90;;;;;;;10.75;100.00;99906.22;4978768;28;96520;-27
2023/10/31 01:51:44;;;;;;;1.35;0.63;;;;;;;10.72;100.00;99893.78;4977643;28;99589;-27
2023/10/31 01:54:10;;;;;;;0.73;0.45;;;;;;;10.75;100.00;99903.53;4976387;28;100964;-28
2023/10/31 01:56:36;;;;;;;4.63;1.05;;;;;;;10.73;100.00;99906.38;4977793;28;96487;-28
2023/10/31 01:59:01;;;;;;;1.63;0.88;;;;;;;10.78;100.00;99917.72;4977893;28;96763;-27
2023/10/31 02:01:27;;;;;;;1.65;0.70;;;;;;;10.78;100.00;99911.44;4977558;28;99009;-29
2023/10/31 02:03:53;;;;;;;1.42;0.68;;;;;;;10.70;100.00;99903.03;4977836;28;97732;-27
2023/10/31 02:06:18;;;;;;;0.65;0.57;;;;;;;10.77;100.00;99921.41;4976549;28;96709;-28
2023/10/31 02:08:44;;;;;;;1.05;0.77;;;;;;;10.76;100.00;99919.66;4977985;28;96772;-27
2023/10/31 02:11:10;;;;;;;1.48;0.98;;;;;;;10.74;100.00;99912.66;4977410;28;99510;-27
2023/10/31 02:13:36;;;;;;;2.30;0.73;;;;;;;10.76;100.00;99925.09;4977852;28;99718;-28
2023/10/31 02:16:02;;;;;;;2.72;1.02;;;;;;;10.73;100.00;99919.06;4976391;28;96592;-27
2023/10/31 02:18:27;;;;;;;0.22;0.22;;;;;;;10.74;100.00;99920.78;4977700;28;96840;-28
2023/10/31 02:20:53;;;;;;;1.30;0.35;;;;;;;10.73;100.00;99924.47;4977216;28;97380;-27
2023/10/31 02:23:18;;;;;;;1.05;0.45;;;;;;;10.70;100.00;99920.16;4976994;28;99273;-27
2023/10/31 02:25:43;;;;;;;0.93;0.35;;;;;;;10.73;100.00;99928.03;4977615;28;96506;-27
2023/10/31 02:28:09;;;;;;;1.33;0.55;;;;;;;10.70;100.00;99928.28;4977767;28;96899;-29
2023/10/31 02:30:35;;;;;;;1.42;0.57;;;;;;;10.72;100.00;99937.13;4977373;28;98037;-27
2023/10/31 02:33:01;;;;;;;1.00;0.65;;;;;;;10.68;100.00;99924.81;4977379;28;96696;-27
2023/10/31 02:35:27;;;;;;;1.17;0.50;;;;;;;10.66;100.00;99924.06;4976174;28;96570;-28
2023/10/31 02:37:52;;;;;;;0.68;0.40;;;;;;;10.70;100.00;99935.53;4977829;28;96824;-28
2023/10/31 02:40:18;;;;;;;1.33;0.60;;;;;;;10.71;100.00;99931.84;4977101;28;97397;-27
2023/10/31 02:42:43;;;;;;;5.55;0.98;;;;;;;10.69;100.00;99939.22;4975751;28;101460;-27
2023/10/31 02:45:09;;;;;;;0.93;0.60;;;;;;;10.72;100.00;99945.25;4977063;28;96551;-28
2023/10/31 02:47:34;;;;;;;2.28;0.75;;;;;;;10.72;100.00;99949.81;4976843;28;96835;-27
2023/10/31 02:50:00;;;;;;;0.95;0.50;;;;;;;10.70;100.00;99946.34;4976896;28;100955;-27
2023/10/31 02:52:25;;;;;;;1.45;0.60;;;;;;;10.70;100.00;99943.66;4977125;28;97874;-27
2023/10/31 02:54:50;;;;;;;1.08;0.50;;;;;;;10.67;100.00;99943.88;4977063;28;96674;-28
2023/10/31 02:57:17;;;;;;;1.02;0.40;;;;;;;10.63;100.00;99946.84;4976935;28;96793;-27
2023/10/31 02:59:42;;;;;;;0.90;0.52;;;;;;;10.67;100.00;99946.59;4975107;28;101110;-27
2023/10/31 03:02:08;;;;;;;1.27;0.35;;;;;;;10.69;100.00;99942.78;4976900;28;98958;-27
2023/10/31 03:04:33;;;;;;;1.58;0.77;;;;;;;10.68;100.00;99945.59;4977154;28;96675;-27
2023/10/31 03:06:59;;;;;;;3.13;1.27;;;;;;;10.64;100.00;99947.69;4977479;28;96863;-30
2023/10/31 03:09:24;;;;;;;0.45;0.35;;;;;;;10.65;100.00;99960.25;4976246;28;97266;-27
2023/10/31 03:11:49;;;;;;;1.13;0.57;;;;;;;10.64;100.00;99955.81;4976758;28;97289;-27
2023/10/31 03:14:15;;;;;;;1.83;0.60;;;;;;;10.63;100.00;99957.69;4976980;28;96655;-28
2023/10/31 03:16:40;;;;;;;0.90;0.50;;;;;;;10.63;100.00;99970.38;4976918;28;96836;-27
2023/10/31 03:19:05;;;;;;;0.55;0.22;;;;;;;10.61;100.00;99958.78;4976620;28;100757;-27
2023/10/31 03:21:31;;;;;;;2.38;0.43;;;;;;;10.51;100.00;99955.91;4976395;28;100600;-27
2023/10/31 03:23:57;;;;;;;0.35;0.20;;;;;;;10.51;100.00;99969.44;4976702;28;96746;-27
2023/10/31 03:26:22;;;;;;;2.05;0.40;;;;;;;10.50;100.00;99967.69;4977216;28;96842;-27
2023/10/31 03:28:48;;;;;;;0.55;0.40;;;;;;;10.49;100.00;99965.97;4976452;28;97939;-28
2023/10/31 03:31:14;;;;;;;0.30;0.20;;;;;;;10.48;100.00;99961.53;4976356;28;97450;-28
2023/10/31 03:33:40;;;;;;;1.17;0.40;;;;;;;10.47;100.00;99967.94;4974701;28;96670;-27
2023/10/31 03:36:06;;;;;;;0.68;0.35;;;;;;;10.43;100.00;99971.84;4975034;28;96821;-28
2023/10/31 03:38:32;;;;;;;1.98;1.00;;;;;;;10.47;100.00;99977.91;4975905;28;98956;-27
2023/10/31 03:40:57;;;;;;;2.47;0.93;;;;;;;10.50;100.00;99981.25;4974663;28;100790;-27
2023/10/31 03:43:22;;;;;;;2.00;0.82;;;;;;;10.48;100.00;99982.34;4976277;28;96771;-28
2023/10/31 03:45:48;;;;;;;1.50;0.90;;;;;;;10.43;100.00;99984.53;4974979;28;96947;-27
2023/10/31 03:48:13;;;;;;;0.85;0.65;;;;;;;10.41;100.00;99982.78;4975364;28;97449;-27
2023/10/31 03:50:39;;;;;;;1.33;0.50;;;;;;;10.44;100.00;99989.84;4976740;28;97382;-27
2023/10/31 03:53:04;;;;;;;1.27;0.35;;;;;;;10.41;100.00;99979.22;4976193;28;96691;-27
2023/10/31 03:55:33;;;;;;;1.02;0.50;;;;;;;10.39;100.00;99975.75;4976103;28;96894;-28
2023/10/31 03:57:58;;;;;;;2.15;0.38;;;;;;;10.39;100.00;99975.75;4973943;28;101419;-27
2023/10/31 04:00:24;;;;;;;0.82;0.45;;;;;;;10.34;100.00;99967.97;4976144;28;97280;-29
2023/10/31 04:02:49;;;;;;;0.43;0.28;;;;;;;10.37;100.00;99973.19;4976151;28;96717;-28
2023/10/31 04:05:14;;;;;;;0.30;0.17;;;;;;;10.41;100.00;99981.94;4975994;28;96876;-28
2023/10/31 04:07:40;;;;;;;0.10;0.10;;;;;;;10.36;100.00;99981.41;4975457;28;99683;-28
2023/10/31 04:10:06;;;;;;;0.20;0.13;;;;;;;10.36;100.00;99984.97;4975053;28;98835;-27
2023/10/31 04:12:31;;;;;;;0.35;0.13;;;;;;;10.41;100.00;99995.47;4974579;28;96709;-27
2023/10/31 04:14:57;;;;;;;0.10;0.00;;;;;;;10.38;100.00;99993.84;4976457;28;96940;-27
2023/10/31 04:17:22;;;;;;;0.40;0.20;;;;;;;10.37;100.00;100002.09;4975566;28;98434;-27
2023/10/31 04:19:48;;;;;;;0.00;0.00;;;;;;;10.38;100.00;100015.50;4975962;28;97332;-27
2023/10/31 04:22:13;;;;;;;0.30;0.17;;;;;;;10.35;100.00;100014.88;4975224;28;96706;-27
2023/10/31 04:24:38;;;;;;;0.10;0.10;;;;;;;10.37;100.00;100018.34;4976106;28;97030;-28
2023/10/31 04:27:04;;;;;;;0.00;0.00;;;;;;;10.33;100.00;100019.53;4975552;28;97915;-27
2023/10/31 04:29:29;;;;;;;0.63;0.08;;;;;;;10.34;100.00;100018.56;4975554;28;97403;-27
2023/10/31 04:31:54;;;;;;;0.00;0.00;;;;;;;10.28;100.00;100010.88;4975938;28;96791;-28
2023/10/31 04:34:20;;;;;;;1.42;0.08;;;;;;;10.30;100.00;100027.91;4975452;28;97549;-28
2023/10/31 04:36:45;;;;;;;0.68;0.20;;;;;;;10.25;100.00;100024.59;4974954;28;99327;-27
2023/10/31 04:39:10;;;;;;;0.08;0.08;;;;;;;10.25;100.00;100027.31;4975745;28;97633;-28
2023/10/31 04:41:36;;;;;;;0.10;0.00;;;;;;;10.26;100.00;100029.91;4975684;28;96494;-28
2023/10/31 04:44:01;;;;;;;0.22;0.00;;;;;;;10.27;100.00;100030.78;4975596;28;96446;-27
2023/10/31 04:46:27;;;;;;;0.85;0.30;;;;;;;10.22;100.00;100031.13;4974432;28;97388;-28
2023/10/31 04:48:53;;;;;;;0.77;0.20;;;;;;;10.22;100.00;100036.53;4973708;28;100877;-28
2023/10/31 04:51:18;;;;;;;0.00;0.00;;;;;;;10.23;100.00;100038.28;4973950;28;96866;-27
2023/10/31 04:53:44;;;;;;;0.00;0.00;;;;;;;10.25;100.00;100043.56;4975627;28;96841;-29
2023/10/31 04:56:17;;;;;;;0.00;0.00;;;;;;;10.20;100.00;100044.78;4975235;28;98021;-27
2023/10/31 04:58:43;;;;;;;1.23;0.08;;;;;;;10.23;100.00;100050.94;4973359;28;100759;-27
2023/10/31 05:01:09;;;;;;;0.10;0.00;;;;;;;10.17;100.00;100053.09;4975087;28;96596;-27
2023/10/31 05:03:34;;;;;;;0.10;0.10;;;;;;;10.19;100.00;100053.84;4975659;28;96920;-28
2023/10/31 05:06:00;;;;;;;0.20;0.10;;;;;;;10.20;100.00;100061.00;4974715;28;98595;-28
2023/10/31 05:08:25;;;;;;;0.25;0.05;;;;;;;10.21;100.00;100070.84;4974888;28;100591;-27
2023/10/31 05:10:50;;;;;;;1.65;0.10;;;;;;;10.17;100.00;100063.91;4975171;28;96848;-27
2023/10/31 05:13:16;;;;;;;0.30;0.20;;;;;;;10.16;100.00;100064.06;4975020;28;96936;-27
2023/10/31 05:15:41;;;;;;;1.55;0.22;;;;;;;10.19;100.00;100064.69;4975100;28;97917;-27
2023/10/31 05:18:06;;;;;;;0.22;0.20;;;;;;;10.21;100.00;100076.25;4974853;28;97748;-28
2023/10/31 05:20:32;;;;;;;0.10;0.10;;;;;;;10.21;100.00;100087.09;4974089;28;96664;-27
2023/10/31 05:22:57;;;;;;;0.98;0.20;;;;;;;10.25;100.00;100085.03;4974533;28;96887;-27
2023/10/31 05:25:22;;;;;;;0.30;0.20;;;;;;;10.18;100.00;100075.63;4973379;28;98105;-27
2023/10/31 05:27:48;;;;;;;0.00;0.00;;;;;;;10.18;100.00;100084.63;4974831;28;98615;-27
2023/10/31 05:30:14;;;;;;;1.08;0.03;;;;;;;10.20;100.00;100090.78;4973577;28;96740;-27
2023/10/31 05:32:39;;;;;;;0.52;0.20;;;;;;;10.16;100.00;100085.72;4975026;28;96860;-27
2023/10/31 05:35:05;;;;;;;1.00;0.28;;;;;;;10.25;100.00;100097.69;4974194;28;97992;-27
2023/10/31 05:37:30;;;;;;;0.60;0.17;;;;;;;10.20;100.00;100095.31;4974534;28;97279;-27
2023/10/31 05:39:56;;;;;;;0.10;0.10;;;;;;;10.21;100.00;100103.31;4975050;28;96553;-28
2023/10/31 05:42:21;;;;;;;0.05;0.05;;;;;;;10.21;100.00;100108.75;4975019;28;97016;-27
2023/10/31 05:44:46;;;;;;;0.08;0.03;;;;;;;10.18;100.00;100100.84;4974484;28;99707;-27
2023/10/31 05:47:12;;;;;;;1.00;0.32;;;;;;;10.21;100.00;100110.59;4973849;28;106036;-27
2023/10/31 05:49:37;;;;;;;0.00;0.00;;;;;;;10.18;100.00;100102.69;4974927;28;96727;-27
2023/10/31 05:52:02;;;;;;;0.05;0.05;;;;;;;10.15;100.00;100108.31;4974998;28;96805;-27
2023/10/31 05:54:28;;;;;;;0.10;0.08;;;;;;;10.14;100.00;100101.19;4974282;28;99661;-27
2023/10/31 05:56:53;;;;;;;0.88;0.30;;;;;;;10.12;100.00;100101.28;4974133;28;99071;-27
2023/10/31 05:59:18;;;;;;;0.08;0.08;;;;;;;10.11;100.00;100106.81;4973954;28;96865;-27
2023/10/31 06:01:44;;;;;;;0.00;0.00;;;;;;;10.14;100.00;100109.31;4974525;28;96926;-28
2023/10/31 06:04:09;;;;;;;0.50;0.20;;;;;;;10.03;100.00;100092.97;4974272;28;97797;-27
2023/10/31 06:06:38;;;;;;;0.15;0.00;;;;;;;10.04;100.00;100106.38;4974634;28;97438;-28
2023/10/31 06:09:04;;;;;;;0.10;0.10;;;;;;;10.03;100.00;100104.63;4974503;28;96535;-28
2023/10/31 06:11:29;;;;;;;0.28;0.10;;;;;;;10.08;100.00;100116.03;4973125;28;96921;-27
2023/10/31 06:13:55;;;;;;;0.00;0.00;;;;;;;10.04;100.00;100117.22;4974182;28;97983;-27
2023/10/31 06:16:21;;;;;;;0.38;0.20;;;;;;;10.03;100.00;100117.31;4974860;28;97253;-27
2023/10/31 06:18:46;;;;;;;0.00;0.00;;;;;;;10.04;100.00;100128.03;4972959;28;96725;-28
2023/10/31 06:21:11;;;;;;;0.30;0.10;;;;;;;10.02;100.00;100124.56;4974479;28;96790;-28
2023/10/31 06:23:38;;;;;;;0.32;0.10;;;;;;;10.03;100.00;100130.84;4973743;28;97394;-27
2023/10/31 06:26:04;;;;;;;0.00;0.00;;;;;;;9.93;100.00;100114.41;4972609;28;100950;-27
2023/10/31 06:28:29;;;;;;;0.00;0.00;;;;;;;9.96;100.00;100133.09;4972961;28;96509;-27
2023/10/31 06:30:55;;;;;;;0.25;0.10;;;;;;;9.94;100.00;100129.66;4974476;28;96764;-27
2023/10/31 06:33:20;;;;;;;0.40;0.30;;;;;;;9.92;100.00;100137.03;4975714;28;98022;-27
2023/10/31 06:35:45;;;;;;;0.55;0.17;;;;;;;9.92;100.00;100128.91;4977232;28;98635;-27
2023/10/31 06:38:11;;;;;;;0.30;0.17;;;;;;;9.93;100.00;100145.00;4977224;28;96601;-27
2023/10/31 06:40:36;;;;;;;0.28;0.20;;;;;;;9.93;100.00;100142.31;4977733;28;96830;-28
2023/10/31 06:43:02;;;;;;;0.43;0.20;;;;;;;9.95;100.00;100153.03;4977360;28;97466;-28
2023/10/31 06:45:27;;;;;;;0.22;0.22;;;;;;;9.93;100.00;100139.59;4977140;28;97748;-27
2023/10/31 06:47:53;;;;;;;0.13;0.13;;;;;;;9.89;100.00;100150.75;4976116;28;96786;-27
2023/10/31 06:50:18;;;;;;;0.55;0.30;;;;;;;9.93;100.00;100157.69;4977399;28;96808;-27
2023/10/31 06:52:44;;;;;;;0.25;0.25;;;;;;;9.90;100.00;100163.31;4977077;28;97876;-27
2023/10/31 06:55:09;;;;;;;0.20;0.20;;;;;;;9.90;100.00;100163.31;4977024;28;97799;-27
2023/10/31 06:57:34;;;;;;;0.43;0.40;;;;;;;9.95;100.00;100169.25;4977339;28;96500;-27
2023/10/31 07:00:00;;;;;;;0.43;0.35;;;;;;;9.95;100.00;100171.97;4977322;28;96848;-28
2023/10/31 07:02:25;;;;;;;0.32;0.30;;;;;;;9.92;100.00;100173.06;4976810;28;99373;-28
2023/10/31 07:04:51;;;;;;;0.75;0.50;;;;;;;9.93;100.00;100179.31;4976991;28;99251;-27
2023/10/31 07:07:16;;;;;;;0.43;0.40;;;;;;;9.96;100.00;100173.69;4977401;28;96585;-27
2023/10/31 07:09:41;;;;;;;3.03;0.63;;;;;;;10.04;100.00;100181.28;4976881;28;96893;-28
2023/10/31 07:12:07;;;;;;;1.48;0.70;;;;;;;10.10;100.00;100184.41;4975555;28;104584;-28
2023/10/31 07:14:32;;;;;;;1.25;0.65;;;;;;;10.09;100.00;100185.41;4975185;28;100486;-27
2023/10/31 07:16:58;;;;;;;0.82;0.52;;;;;;;10.13;100.00;100194.16;4974051;28;97159;-29
2023/10/31 07:19:23;;;;;;;2.92;0.88;;;;;;;10.16;100.00;100197.53;4976679;28;96987;-27
2023/10/31 07:21:48;;;;;;;0.85;0.57;;;;;;;10.21;100.00;100205.31;4976547;28;97531;-27
2023/10/31 07:24:14;;;;;;;0.43;0.40;;;;;;;10.18;100.00;100192.88;4976319;28;98932;-27
2023/10/31 07:26:39;;;;;;;0.70;0.55;;;;;;;10.21;100.00;100208.88;4976849;28;96540;-27
2023/10/31 07:29:05;;;;;;;0.60;0.40;;;;;;;10.23;100.00;100205.22;4977175;28;96803;-27
2023/10/31 07:31:30;;;;;;;1.55;0.95;;;;;;;10.23;100.00;100210.63;4976448;28;97568;-27
2023/10/31 07:33:56;;;;;;;0.68;0.65;;;;;;;10.25;100.00;100211.38;4974940;28;97454;-28
2023/10/31 07:36:21;;;;;;;1.05;0.70;;;;;;;10.28;100.00;100214.78;4973540;28;96915;-28
2023/10/31 07:38:47;;;;;;;0.90;0.75;;;;;;;10.30;100.00;100214.69;4974158;28;96868;-29
2023/10/31 07:41:13;;;;;;;1.95;1.00;;;;;;;10.34;100.00;100221.56;4973783;28;99412;-28
2023/10/31 07:43:38;;;;;;;2.03;0.93;;;;;;;10.35;100.00;100228.75;4973414;28;97849;-32
2023/10/31 07:46:04;;;;;;;3.25;0.98;;;;;;;10.33;100.00;100220.72;4973623;28;96771;-28
2023/10/31 07:48:29;;;;;;;2.08;1.27;;;;;;;10.31;100.00;100211.84;4974078;28;97024;-27
2023/10/31 07:50:54;;;;;;;1.60;1.10;;;;;;;10.29;100.00;100200.25;4976082;28;98173;-27
2023/10/31 07:53:20;;;;;;;1.80;0.90;;;;;;;10.31;100.00;100208.28;4976452;28;97392;-29
2023/10/31 07:55:46;;;;;;;5.78;1.30;;;;;;;10.34;100.00;100208.03;4974888;28;96830;-27
2023/10/31 07:58:12;;;;;;;1.50;0.88;;;;;;;10.34;100.00;100205.34;4976074;28;96899;-27
2023/10/31 08:00:39;;;;;;;1.08;0.70;;;;;;;10.35;100.00;100207.94;4973643;28;100928;-28
2023/10/31 08:03:04;;;;;;;5.90;1.20;;;;;;;10.37;100.00;100219.53;4975285;28;98399;-37
2023/10/31 08:05:29;;;;;;;1.30;0.98;;;;;;;10.36;100.00;100222.34;4985659;28;97264;-27
2023/10/31 08:07:55;;;;;;;4.10;0.88;;;;;;;10.37;100.00;100229.50;4995520;28;96859;-28
2023/10/31 08:10:20;;;;;;;3.63;1.00;;;;;;;10.31;100.00;100217.25;4995048;28;99990;-27
2023/10/31 08:12:45;;;;;;;1.70;1.17;;;;;;;10.35;100.00;100217.91;4995741;28;97996;-28
2023/10/31 08:15:11;;;;;;;2.00;1.30;;;;;;;10.30;100.00;100215.53;4996026;28;96708;-27
2023/10/31 08:17:36;;;;;;;2.83;1.38;;;;;;;10.38;100.00;100225.81;4996002;28;96850;-28
2023/10/31 08:20:05;;;;;;;1.88;1.25;;;;;;;10.37;100.00;100224.94;4995682;28;99233;-28
2023/10/31 08:22:30;;;;;;;2.05;1.30;;;;;;;10.39;100.00;100230.25;4995341;28;99726;-27
2023/10/31 08:24:56;;;;;;;3.08;2.03;;;;;;;10.38;100.00;100233.94;4995664;28;96583;-27
2023/10/31 08:27:21;;;;;;;2.25;1.50;;;;;;;10.41;100.00;100239.13;4993768;28;96899;-30
2023/10/31 08:29:47;;;;;;;2.60;1.58;;;;;;;10.47;100.00;100244.13;4992819;28;99762;-32
2023/10/31 08:32:12;;;;;;;3.08;1.90;;;;;;;10.39;100.00;100225.72;4992755;28;99319;-29
2023/10/31 08:34:37;;;;;;;3.85;2.00;;;;;;;10.56;100.00;100248.88;4993571;28;96621;-28
2023/10/31 08:37:03;;;;;;;3.63;2.10;;;;;;;10.66;100.00;100250.94;4992913;28;96987;-28
2023/10/31 08:39:29;;;;;;;6.07;2.20;;;;;;;10.71;100.00;100252.31;4992764;28;99355;-31
2023/10/31 08:41:56;;;;;;;2.50;1.58;;;;;;;10.84;100.00;100260.44;4994178;28;99259;-27
2023/10/31 08:44:22;;;;;;;3.40;1.88;;;;;;;10.84;100.00;100255.00;4995531;28;96768;-28
2023/10/31 08:46:47;;;;;;;3.67;2.17;;;;;;;10.82;100.00;100247.00;4993189;28;96886;-27
2023/10/31 08:49:14;;;;;;;3.33;1.55;;;;;;;10.86;100.00;100247.63;4994611;28;99397;-27
2023/10/31 08:51:39;;;;;;;7.78;2.22;;;;;;;10.97;100.00;100265.84;4993522;28;100909;-27
2023/10/31 08:54:05;;;;;;;3.75;1.92;;;;;;;10.94;100.00;100255.19;4995344;28;96679;-27
2023/10/31 08:56:31;;;;;;;3.85;2.15;;;;;;;10.96;100.00;100264.94;4995035;28;96772;-27
2023/10/31 08:58:56;;;;;;;2.65;1.48;;;;;;;10.98;100.00;100270.28;4994759;28;100264;-27
2023/10/31 09:01:22;;;;;;;3.75;1.88;;;;;;;10.96;100.00;100258.66;4995122;28;97410;-27
2023/10/31 09:03:47;;;;;;;1.83;1.27;;;;;;;11.02;100.00;100269.94;4995324;28;96512;-29
2023/10/31 09:06:13;;;;;;;2.00;1.23;;;;;;;11.02;100.00;100278.06;4995634;28;96808;-28
2023/10/31 09:08:38;;;;;;;2.47;1.75;;;;;;;11.05;100.00;100276.97;4994743;28;98842;-28
2023/10/31 09:11:04;;;;;;;1.67;1.08;;;;;;;11.08;100.00;100273.16;4994958;28;97807;-27
2023/10/31 09:13:31;;;;;;;4.07;1.25;;;;;;;11.10;100.00;100273.94;4994651;28;96568;-27
2023/10/31 09:15:58;;;;;;;1.90;1.20;;;;;;;11.15;100.00;100293.44;4993319;28;96869;-28
2023/10/31 09:18:24;;;;;;;2.45;1.15;;;;;;;11.17;100.00;100286.91;4993130;28;101588;-28
2023/10/31 09:20:49;;;;;;;2.35;0.98;;;;;;;11.10;100.00;100273.94;4994527;28;99643;-27
2023/10/31 09:23:15;;;;;;;1.67;1.00;;;;;;;11.21;100.00;100296.56;4995114;28;96788;-27
2023/10/31 09:25:40;;;;;;;7.40;1.17;;;;;;;11.24;100.00;100295.47;4994897;28;96833;-27
2023/10/31 09:28:06;;;;;;;4.43;1.38;;;;;;;11.37;100.00;100290.00;4994465;28;101984;-27
2023/10/31 09:30:31;;;;;;;1.25;0.95;;;;;;;11.59;100.00;100303.72;4994784;28;96898;-27
2023/10/31 09:32:56;;;;;;;2.53;1.48;;;;;;;11.69;100.00;100314.75;4994726;28;96526;-27
2023/10/31 09:35:22;;;;;;;3.30;1.27;;;;;;;11.77;100.00;100311.44;4994880;28;96857;-28
2023/10/31 09:37:48;;;;;;;3.25;1.35;;;;;;;11.94;100.00;100312.91;4994016;28;97947;-27
2023/10/31 09:40:14;;;;;;;2.10;1.25;;;;;;;12.09;100.00;100307.19;4992835;28;100848;-27
2023/10/31 09:42:40;;;;;;;4.88;1.17;;;;;;;12.09;100.00;100309.06;4994781;28;96612;-28
2023/10/31 09:45:06;;;;;;;3.15;0.88;;;;;;;11.94;100.00;100297.53;4994633;28;96815;-27
2023/10/31 09:47:32;;;;;;;4.57;1.13;;;;;;;11.93;100.00;100311.19;4992092;28;102371;-27
2023/10/31 09:49:58;;;;;;;4.47;1.10;;;;;;;11.85;100.00;100315.31;4994327;28;97756;-27
2023/10/31 09:52:24;;;;;;;2.70;0.98;;;;;;;11.82;100.00;100320.09;4993101;28;97315;-27
2023/10/31 09:54:52;;;;;;;2.05;0.80;;;;;;;11.83;100.00;100311.84;4993544;28;96865;-27
2023/10/31 09:57:18;;;;;;;1.65;0.68;;;;;;;11.96;100.00;100321.81;4992726;28;101258;-27
2023/10/31 09:59:43;;;;;;;3.95;0.90;;;;;;;11.86;100.00;100327.03;4993486;28;99136;-27
2023/10/31 10:02:09;;;;;;;2.30;0.73;;;;;;;11.86;100.00;100335.19;4994084;28;96589;-27
2023/10/31 10:04:36;;;;;;;3.03;0.70;;;;;;;11.82;100.00;100321.00;4993085;28;96880;-28
2023/10/31 10:07:02;;;;;;;2.00;1.00;;;;;;;11.86;100.00;100332.47;4994133;28;97555;-27
2023/10/31 10:09:29;;;;;;;2.60;0.85;;;;;;;11.88;100.00;100333.25;4996192;28;100883;-27
2023/10/31 10:11:55;;;;;;;4.43;0.90;;;;;;;11.90;100.00;100340.31;4997659;28;96539;-27
2023/10/31 10:14:23;;;;;;;3.15;0.85;;;;;;;12.00;100.00;100354.03;4996403;28;96901;-28
2023/10/31 10:16:49;;;;;;;3.50;1.10;;;;;;;12.00;100.00;100347.75;4995862;28;100802;-27
2023/10/31 10:19:21;;;;;;;6.15;1.30;;;;;;;12.19;100.00;100355.38;4997824;28;97804;-28
2023/10/31 10:21:54;;;;;;;3.13;1.30;;;;;;;12.44;100.00;100348.91;4997759;28;96577;-28
2023/10/31 10:24:21;;;;;;;5.28;1.48;;;;;;;12.50;100.00;100352.00;4997524;28;96741;-27
2023/10/31 10:26:47;;;;;;;3.63;1.75;;;;;;;12.43;100.00;100352.59;4995027;28;101186;-28
2023/10/31 10:29:13;;;;;;;5.38;2.58;;;;;;;12.39;100.00;100368.25;4995908;28;101106;-27
2023/10/31 10:31:40;;;;;;;4.85;2.80;;;;;;;12.28;100.00;100377.25;4996278;28;96592;-27
2023/10/31 10:34:06;;;;;;;4.68;3.08;;;;;;;12.19;100.00;100383.38;4996038;28;96866;-28
2023/10/31 10:36:33;;;;;;;7.80;4.30;;;;;;;12.09;100.00;100375.06;4995777;28;101116;-27
2023/10/31 10:38:59;;;;;;;6.28;3.97;;;;;;;12.15;100.00;100381.88;4996989;28;97937;-28
2023/10/31 10:41:26;;;;;;;6.75;4.03;;;;;;;12.19;100.00;100387.94;4997264;28;96701;-27
2023/10/31 10:44:07;;;;;;;7.18;3.92;;;;;;;12.26;100.00;100386.50;4997720;28;96712;-27
2023/10/31 10:46:35;;;;;;;9.88;4.07;;;;;;;12.23;100.00;100387.59;4996400;28;98084;-27
2023/10/31 10:49:04;;;;;;;9.27;4.38;;;;;;;12.18;100.00;100383.47;4996880;28;99917;-27
2023/10/31 10:52:05;;;;;;;6.30;4.15;;;;;;;12.11;100.00;100391.25;4995394;28;96555;-27
2023/10/31 10:55:04;;;;;;;7.90;4.68;;;;;;;12.13;100.00;100402.84;4994709;28;97122;-27
2023/10/31 10:57:51;;;;;;;8.05;4.00;;;;;;;12.01;100.00;100395.63;4995397;28;100921;-28
2023/10/31 11:00:17;;;;;;;10.02;5.13;;;;;;;12.06;100.00;100401.56;4995137;28;100950;-28
2023/10/31 11:02:43;;;;;;;11.82;4.70;;;;;;;12.02;100.00;100403.66;4995543;28;96621;-27
2023/10/31 11:05:09;;;;;;;9.18;5.13;;;;;;;12.01;100.00;100396.50;4995495;28;96871;-28
2023/10/31 11:07:36;;;;;;;10.65;4.75;;;;;;;11.98;100.00;100390.44;4996803;28;97151;-27
2023/10/31 11:10:04;;;;;;;9.73;5.05;;;;;;;12.10;100.00;100395.78;4995479;28;101000;-27
2023/10/31 11:12:31;;;;;;;9.07;4.75;;;;;;;12.22;100.00;100388.56;4995401;28;96621;-27